createdAt,value
2023-04-30T00:01:53.664Z,84.42
2023-04-30T00:04:22.049Z,84.38
2023-04-30T00:06:50.603Z,84.65
2023-04-30T00:09:18.918Z,84.96
2023-04-30T00:11:47.732Z,85.22
2023-04-30T00:14:16.697Z,85.58
2023-04-30T00:16:48.242Z,85.73
2023-04-30T00:19:16.799Z,86.10
2023-04-30T00:21:48.112Z,86.33
2023-04-30T00:24:16.468Z,86.29
2023-04-30T00:26:45.008Z,86.19
2023-04-30T00:29:13.306Z,86.50
2023-04-30T00:31:42.184Z,86.66
2023-04-30T00:34:10.542Z,86.94
2023-04-30T00:36:39.959Z,87.67
2023-04-30T00:39:08.335Z,87.84
2023-04-30T00:41:37.430Z,87.94
2023-04-30T00:44:06.874Z,88.18
2023-04-30T00:46:35.219Z,88.42
2023-04-30T00:49:05.276Z,88.57
2023-04-30T00:51:33.824Z,88.96
2023-04-30T00:54:03.641Z,89.23
2023-04-30T00:56:32.605Z,89.31
2023-04-30T00:59:02.066Z,89.43
2023-04-30T01:01:30.651Z,89.56
2023-04-30T01:04:01.236Z,89.57
2023-04-30T01:06:29.827Z,89.54
2023-04-30T01:08:58.683Z,89.62
2023-04-30T01:11:29.954Z,89.80
2023-04-30T01:14:19.571Z,89.80
2023-04-30T01:16:55.234Z,89.90
2023-04-30T01:19:40.695Z,90.02
2023-04-30T01:22:26.113Z,89.86
2023-04-30T01:25:12.990Z,89.93
2023-04-30T01:28:05.637Z,90.31
2023-04-30T01:30:35.508Z,90.68
2023-04-30T01:33:04.563Z,90.98
2023-04-30T01:35:44.312Z,91.59
2023-04-30T01:38:42.580Z,92.17
2023-04-30T01:41:26.011Z,92.98
2023-04-30T01:44:09.362Z,93.87
2023-04-30T01:46:37.858Z,94.42
2023-04-30T01:49:26.360Z,94.52
2023-04-30T01:52:04.201Z,95.26
2023-04-30T01:54:41.888Z,96.35
2023-04-30T01:57:50.268Z,96.77
2023-04-30T02:00:19.351Z,97.18
2023-04-30T02:02:47.731Z,97.53
2023-04-30T02:05:16.268Z,98.12
2023-04-30T02:07:48.268Z,98.18
2023-04-30T02:10:18.131Z,98.50
2023-04-30T02:12:46.598Z,98.78
2023-04-30T02:15:15.595Z,99.42
2023-04-30T02:17:44.296Z,99.68
2023-04-30T02:20:13.119Z,99.87
2023-04-30T02:22:41.679Z,100.00
2023-04-30T02:25:11.803Z,100.00
2023-04-30T02:27:40.937Z,100.00
2023-04-30T02:30:09.640Z,100.00
2023-04-30T02:32:38.151Z,100.00
2023-04-30T02:35:06.807Z,100.00
2023-04-30T02:37:35.156Z,100.00
2023-04-30T02:40:03.596Z,100.00
2023-04-30T02:42:32.021Z,100.00
2023-04-30T02:45:00.255Z,100.00
2023-04-30T02:47:28.909Z,100.00
2023-04-30T02:49:57.388Z,100.00
2023-04-30T02:52:26.461Z,100.00
2023-04-30T02:54:54.896Z,100.00
2023-04-30T02:57:23.274Z,100.00
2023-04-30T02:59:51.896Z,100.00
2023-04-30T03:02:23.840Z,100.00
2023-04-30T03:04:52.503Z,100.00
2023-04-30T03:07:20.902Z,100.00
2023-04-30T03:09:49.387Z,100.00
2023-04-30T03:12:17.688Z,100.00
2023-04-30T03:14:46.141Z,100.00
2023-04-30T03:17:15.242Z,100.00
2023-04-30T03:19:44.612Z,100.00
2023-04-30T03:22:12.959Z,100.00
2023-04-30T03:24:41.434Z,100.00
2023-04-30T03:27:10.126Z,100.00
2023-04-30T03:29:38.498Z,100.00
2023-04-30T03:32:06.974Z,100.00
2023-04-30T03:34:35.244Z,100.00
2023-04-30T03:37:04.114Z,100.00
2023-04-30T03:39:32.527Z,100.00
2023-04-30T03:42:03.842Z,100.00
2023-04-30T03:44:32.393Z,100.00
2023-04-30T03:47:00.882Z,100.00
2023-04-30T03:49:29.310Z,100.00
2023-04-30T03:51:57.760Z,100.00
2023-04-30T03:54:26.147Z,100.00
2023-04-30T03:56:54.684Z,100.00
2023-04-30T03:59:23.342Z,100.00
2023-04-30T04:01:52.424Z,100.00
2023-04-30T04:04:20.990Z,100.00
2023-04-30T04:06:49.363Z,100.00
2023-04-30T04:09:17.743Z,100.00
2023-04-30T04:11:46.359Z,99.46
2023-04-30T04:14:14.792Z,98.28
2023-04-30T04:16:43.462Z,97.51
2023-04-30T04:19:28.952Z,96.76
2023-04-30T04:21:57.855Z,89.90
2023-04-30T04:24:27.042Z,85.51
2023-04-30T04:26:56.278Z,86.08
2023-04-30T04:29:24.617Z,85.91
2023-04-30T04:31:53.198Z,84.30
2023-04-30T04:34:21.793Z,83.21
2023-04-30T04:36:50.082Z,83.20
2023-04-30T04:39:18.372Z,80.93
2023-04-30T04:41:46.807Z,81.05
2023-04-30T04:44:15.088Z,81.29
2023-04-30T04:46:44.784Z,81.29
2023-04-30T04:49:13.429Z,81.33
2023-04-30T04:51:42.086Z,81.06
2023-04-30T04:54:10.594Z,80.84
2023-04-30T04:56:38.900Z,81.40
2023-04-30T04:59:07.958Z,81.05
2023-04-30T05:01:36.718Z,80.90
2023-04-30T05:04:05.421Z,79.85
2023-04-30T05:06:33.892Z,79.69
2023-04-30T05:09:03.084Z,79.38
2023-04-30T05:11:31.414Z,78.48
2023-04-30T05:13:59.752Z,78.28
2023-04-30T05:16:28.206Z,78.75
2023-04-30T05:18:56.642Z,79.75
2023-04-30T05:21:27.031Z,80.14
2023-04-30T05:23:56.218Z,80.39
2023-04-30T05:26:27.413Z,79.87
2023-04-30T05:28:55.740Z,79.79
2023-04-30T05:31:24.155Z,80.01
2023-04-30T05:33:52.574Z,80.72
2023-04-30T05:36:20.918Z,81.27
2023-04-30T05:38:49.246Z,81.79
2023-04-30T05:41:17.712Z,81.15
2023-04-30T05:43:46.059Z,81.09
2023-04-30T05:46:14.431Z,80.90
2023-04-30T05:48:42.787Z,81.04
2023-04-30T05:51:11.136Z,81.43
2023-04-30T05:53:39.522Z,81.78
2023-04-30T05:56:09.033Z,82.31
2023-04-30T05:58:37.318Z,81.63
2023-04-30T06:01:05.717Z,80.83
2023-04-30T06:03:34.095Z,80.96
2023-04-30T06:06:02.554Z,81.10
2023-04-30T06:08:31.125Z,81.78
2023-04-30T06:10:59.532Z,82.18
2023-04-30T06:13:27.886Z,82.09
2023-04-30T06:15:56.282Z,82.53
2023-04-30T06:18:24.593Z,82.31
2023-04-30T06:21:09.838Z,82.38
2023-04-30T06:23:38.414Z,82.24
2023-04-30T06:26:06.869Z,82.47
2023-04-30T06:28:35.182Z,82.64
2023-04-30T06:31:03.996Z,82.96
2023-04-30T06:33:32.374Z,82.62
2023-04-30T06:36:00.706Z,82.31
2023-04-30T06:38:29.470Z,82.22
2023-04-30T06:40:57.995Z,82.30
2023-04-30T06:43:26.405Z,82.34
2023-04-30T06:45:54.815Z,82.02
2023-04-30T06:48:23.497Z,81.44
2023-04-30T06:50:51.872Z,81.26
2023-04-30T06:53:20.298Z,81.44
2023-04-30T06:55:49.051Z,84.14
2023-04-30T06:58:18.980Z,85.39
2023-04-30T07:00:47.455Z,85.74
2023-04-30T07:03:15.934Z,85.68
2023-04-30T07:05:45.168Z,85.22
2023-04-30T07:08:13.778Z,85.35
2023-04-30T07:10:42.241Z,85.72
2023-04-30T07:13:10.721Z,85.24
2023-04-30T07:15:39.296Z,83.84
2023-04-30T07:18:07.733Z,82.99
2023-04-30T07:20:36.181Z,81.49
2023-04-30T07:23:04.672Z,78.51
2023-04-30T07:25:32.990Z,73.84
2023-04-30T07:28:01.458Z,72.32
2023-04-30T07:30:29.996Z,71.16
2023-04-30T07:32:58.663Z,69.35
2023-04-30T07:35:27.140Z,68.96
2023-04-30T07:37:55.481Z,68.48
2023-04-30T07:40:34.917Z,67.52
2023-04-30T07:43:05.305Z,67.41
2023-04-30T07:45:35.165Z,67.42
2023-04-30T07:48:03.877Z,67.31
2023-04-30T07:50:34.445Z,66.18
2023-04-30T07:53:03.268Z,65.37
2023-04-30T07:55:31.913Z,64.64
2023-04-30T07:58:00.367Z,65.12
2023-04-30T08:00:29.745Z,64.47
2023-04-30T08:02:59.600Z,64.26
2023-04-30T08:05:28.291Z,64.10
2023-04-30T08:07:56.697Z,63.60
2023-04-30T08:10:26.537Z,63.27
2023-04-30T08:12:54.941Z,62.80
2023-04-30T08:15:23.292Z,62.66
2023-04-30T08:17:52.618Z,60.13
2023-04-30T08:20:23.781Z,60.53
2023-04-30T08:22:52.457Z,59.65
2023-04-30T08:25:22.410Z,58.91
2023-04-30T08:27:50.811Z,58.28
2023-04-30T08:30:19.990Z,58.05
2023-04-30T08:32:49.802Z,59.22
2023-04-30T08:35:18.303Z,60.13
2023-04-30T08:37:46.655Z,59.21
2023-04-30T08:40:16.695Z,57.57
2023-04-30T08:42:54.251Z,56.90
2023-04-30T08:45:23.020Z,55.86
2023-04-30T08:47:52.531Z,55.77
2023-04-30T08:50:20.961Z,56.21
2023-04-30T08:52:49.605Z,55.07
2023-04-30T08:55:18.041Z,54.38
2023-04-30T08:57:46.307Z,53.78
2023-04-30T09:00:15.130Z,53.89
2023-04-30T09:02:44.827Z,53.80
2023-04-30T09:05:15.101Z,52.71
2023-04-30T09:08:01.179Z,53.55
2023-04-30T09:10:35.559Z,52.79
2023-04-30T09:13:09.486Z,53.05
2023-04-30T09:15:41.473Z,51.52
2023-04-30T09:18:11.745Z,50.25
2023-04-30T09:20:58.381Z,47.46
2023-04-30T09:23:26.885Z,45.92
2023-04-30T09:25:55.518Z,46.25
2023-04-30T09:28:26.672Z,46.19
2023-04-30T09:30:58.810Z,45.66
2023-04-30T09:33:27.252Z,44.69
2023-04-30T09:35:55.640Z,44.14
2023-04-30T09:38:31.602Z,44.64
2023-04-30T09:41:01.677Z,42.14
2023-04-30T09:43:31.211Z,39.67
2023-04-30T09:46:00.573Z,37.79
2023-04-30T09:48:32.032Z,37.33
2023-04-30T09:51:08.686Z,36.78
2023-04-30T09:53:42.660Z,35.65
2023-04-30T09:56:14.440Z,33.70
2023-04-30T09:58:48.714Z,32.67
2023-04-30T10:01:18.344Z,35.04
2023-04-30T10:03:48.633Z,35.58
2023-04-30T10:06:19.616Z,35.74
2023-04-30T10:08:51.639Z,34.93
2023-04-30T10:11:22.149Z,33.86
2023-04-30T10:13:50.696Z,34.96
2023-04-30T10:16:29.935Z,36.37
2023-04-30T10:23:23.867Z,35.34
2023-04-30T10:25:53.349Z,34.25
2023-04-30T10:28:23.452Z,34.48
2023-04-30T10:30:53.701Z,34.96
2023-04-30T10:34:11.698Z,36.06
2023-04-30T10:36:44.977Z,34.03
2023-04-30T10:39:15.812Z,33.82
2023-04-30T10:41:50.177Z,33.70
2023-04-30T10:44:22.957Z,33.88
2023-04-30T10:47:00.099Z,33.89
2023-04-30T10:53:53.046Z,33.18
2023-04-30T10:56:35.015Z,34.04
2023-04-30T10:59:10.204Z,33.78
2023-04-30T11:01:59.300Z,33.15
2023-04-30T11:04:28.637Z,32.03
2023-04-30T11:07:08.985Z,31.51
2023-04-30T11:09:43.060Z,31.15
2023-04-30T11:12:11.478Z,32.20
2023-04-30T11:14:44.934Z,32.63
2023-04-30T11:17:24.997Z,32.57
2023-04-30T11:19:54.759Z,32.30
2023-04-30T11:22:24.938Z,31.16
2023-04-30T11:24:59.776Z,30.55
2023-04-30T11:27:29.942Z,30.68
2023-04-30T11:29:59.533Z,31.67
2023-04-30T11:32:35.201Z,33.06
2023-04-30T11:35:05.855Z,32.13
2023-04-30T11:37:34.074Z,31.61
2023-04-30T11:40:05.377Z,31.29
2023-04-30T11:42:37.538Z,32.29
2023-04-30T11:45:14.374Z,32.78
2023-04-30T11:47:45.987Z,31.25
2023-04-30T11:50:19.771Z,30.89
2023-04-30T11:52:52.949Z,31.45
2023-04-30T11:55:23.601Z,32.09
2023-04-30T11:57:58.949Z,31.02
2023-04-30T12:00:29.597Z,30.06
2023-04-30T12:03:01.171Z,31.08
2023-04-30T12:05:29.679Z,32.31
2023-04-30T12:08:08.123Z,31.05
2023-04-30T12:10:36.787Z,30.72
2023-04-30T12:13:05.337Z,30.61
2023-04-30T12:15:34.562Z,29.88
2023-04-30T12:18:14.086Z,30.39
2023-04-30T12:20:43.032Z,32.85
2023-04-30T12:23:11.876Z,32.06
2023-04-30T12:25:47.959Z,30.79
2023-04-30T12:28:17.171Z,31.22
2023-04-30T12:30:46.572Z,31.14
2023-04-30T12:33:18.560Z,30.15
2023-04-30T12:35:47.921Z,30.20
2023-04-30T12:38:18.504Z,30.50
2023-04-30T12:40:49.292Z,31.49
2023-04-30T12:43:18.671Z,30.02
2023-04-30T12:45:55.499Z,30.27
2023-04-30T12:48:26.230Z,30.99
2023-04-30T12:50:55.345Z,31.45
2023-04-30T12:53:24.417Z,31.20
2023-04-30T12:56:12.719Z,30.98
2023-04-30T12:58:42.598Z,31.23
2023-04-30T13:01:14.296Z,30.22
2023-04-30T13:03:43.286Z,29.21
2023-04-30T13:06:11.904Z,29.79
2023-04-30T13:08:50.317Z,30.28
2023-04-30T13:11:27.336Z,30.10
2023-04-30T13:13:56.345Z,29.35
2023-04-30T13:16:25.460Z,29.11
2023-04-30T13:18:57.029Z,28.84
2023-04-30T13:21:27.811Z,29.49
2023-04-30T13:23:58.374Z,29.13
2023-04-30T13:26:29.594Z,28.97
2023-04-30T13:29:02.006Z,29.05
2023-04-30T13:31:31.366Z,28.95
2023-04-30T13:33:59.960Z,28.93
2023-04-30T13:36:29.528Z,28.28
2023-04-30T13:38:59.817Z,28.73
2023-04-30T13:41:28.612Z,28.42
2023-04-30T13:43:57.546Z,28.70
2023-04-30T13:46:26.564Z,28.68
2023-04-30T13:48:54.989Z,28.73
2023-04-30T13:51:23.806Z,29.07
2023-04-30T13:53:53.000Z,29.38
2023-04-30T13:56:21.681Z,28.91
2023-04-30T13:58:51.428Z,30.03
2023-04-30T14:01:20.608Z,29.27
2023-04-30T14:03:49.935Z,29.22
2023-04-30T14:06:18.901Z,28.70
2023-04-30T14:08:47.887Z,29.46
2023-04-30T14:11:17.643Z,29.76
2023-04-30T14:13:46.516Z,29.90
2023-04-30T14:16:15.046Z,29.43
2023-04-30T14:18:44.924Z,29.57
2023-04-30T14:21:13.729Z,29.04
2023-04-30T14:23:42.115Z,29.06
2023-04-30T14:26:10.771Z,28.88
2023-04-30T14:28:40.899Z,29.69
2023-04-30T14:31:10.700Z,30.88
2023-04-30T14:33:40.009Z,30.88
2023-04-30T14:36:09.208Z,30.49
2023-04-30T14:38:37.761Z,29.82
2023-04-30T14:41:06.480Z,28.59
2023-04-30T14:43:35.723Z,29.46
2023-04-30T14:46:05.036Z,28.71
2023-04-30T14:48:33.962Z,29.09
2023-04-30T14:51:02.327Z,29.63
2023-04-30T14:53:31.063Z,29.66
2023-04-30T14:56:00.217Z,30.20
2023-04-30T14:58:30.148Z,30.69
2023-04-30T15:00:59.780Z,30.29
2023-04-30T15:03:31.324Z,31.03
2023-04-30T15:06:01.859Z,31.79
2023-04-30T15:08:31.780Z,31.08
2023-04-30T15:11:07.417Z,31.01
2023-04-30T15:13:38.766Z,31.65
2023-04-30T15:16:09.572Z,32.42
2023-04-30T15:18:40.775Z,32.58
2023-04-30T15:21:10.078Z,32.79
2023-04-30T15:23:40.561Z,32.90
2023-04-30T15:26:11.731Z,32.94
2023-04-30T15:28:43.249Z,33.16
2023-04-30T15:31:13.980Z,32.65
2023-04-30T15:33:44.890Z,32.89
2023-04-30T15:36:16.785Z,33.76
2023-04-30T15:38:47.799Z,33.37
2023-04-30T15:41:19.755Z,33.17
2023-04-30T15:43:50.466Z,33.21
2023-04-30T15:46:20.889Z,33.15
2023-04-30T15:48:51.995Z,33.55
2023-04-30T15:51:22.842Z,33.03
2023-04-30T15:53:52.996Z,33.40
2023-04-30T15:56:26.078Z,33.27
2023-04-30T15:58:56.785Z,33.34
